FD19 weather

Lawnwood Medical Center Heliport
Fort Pierce, Florida, United States

Public forecast

Using degrees Fahrenheit for public forecast. Weather courtesy of forecast.io.

Closest aviation weather report (METAR) to Lawnwood Medical Center Heliport

Closest report is St Lucie County International Airport, 4.0 nm (7.5 km) NNW. Retrieved 2019/10/14 15:53 UTC (44 minutes ago):

KFPR 141553Z 14007KT 10SM SCT029 OVC043 29/21 A3008 RMK AO2 SLP184 T02890211

Closest aviation forecast (TAF) to Lawnwood Medical Center Heliport

Closest forecast is St Lucie County International Airport, 4.0 nm (7.5 km) NNW. Retrieved 2019/10/14 12:33 UTC (4 hours ago):

TAF KFPR 141131Z 1412/1512 VRB03KT P6SM FEW030 SCT070 FM141500 09006KT P6SM FEW025 FEW040 FM141800 09010KT P6SM SCT030 SCT060 FM150100 11003KT P6SM FEW030 FEW200